Weather at Eskilstuna Airport

Public forecast

Using degrees Celsius for public forecast. Weather courtesy of forecast.io.

Closest aviation weather report (METAR) to Eskilstuna Airport

Closest report is Stockholm Västerås Airport, 14.5 nm (26.8 km) N. Retrieved 2021/06/19 15:20 UTC (0 seconds ago):

ESOW 191520Z AUTO 10007KT 060V130 9999 R01///// R19/P2000N NCD 27/17 Q1010

Closest aviation forecast (TAF) to Eskilstuna Airport

Forecast is more than 12 hours old.

Closest forecast is Stockholm Västerås Airport, 14.5 nm (26.8 km) N. Retrieved 2021-06-01 03:36 UTC (18 days ago):

TAF TAF ESOW 190230Z 1903/1915 27005KT CAVOK